createdAt,value
2019-03-11T00:00:36.993Z,5.53
2019-03-11T00:03:05.483Z,4.57
2019-03-11T00:05:33.891Z,4.27
2019-03-11T00:08:02.492Z,5.50
2019-03-11T00:10:30.917Z,8.23
2019-03-11T00:12:59.356Z,7.90
2019-03-11T00:15:27.776Z,4.30
2019-03-11T00:17:56.204Z,1.77
2019-03-11T00:20:24.635Z,3.97
2019-03-11T00:23:12.395Z,1.97
2019-03-11T00:25:40.832Z,2.67
2019-03-11T00:28:09.260Z,2.57
2019-03-11T00:30:37.701Z,1.70
2019-03-11T00:33:06.122Z,2.93
2019-03-11T00:35:34.554Z,3.13
2019-03-11T00:38:02.988Z,2.20
2019-03-11T00:40:31.412Z,2.33
2019-03-11T00:42:59.873Z,2.87
2019-03-11T00:45:28.302Z,1.77
2019-03-11T00:48:01.879Z,2.60
2019-03-11T00:50:26.876Z,2.23
2019-03-11T00:52:55.320Z,2.80
2019-03-11T00:55:23.816Z,2.10
2019-03-11T00:57:52.233Z,2.43
2019-03-11T01:00:29.336Z,2.17
2019-03-11T01:02:59.424Z,2.10
2019-03-11T01:05:27.924Z,2.60
2019-03-11T01:07:56.353Z,3.20
2019-03-11T01:10:25.058Z,2.43
2019-03-11T01:12:53.477Z,1.53
2019-03-11T01:15:21.898Z,2.27
2019-03-11T01:17:50.397Z,1.43
2019-03-11T01:20:18.829Z,2.90
2019-03-11T01:22:52.924Z,1.87
2019-03-11T01:25:21.348Z,4.37
2019-03-11T01:27:49.804Z,2.30
2019-03-11T01:30:18.313Z,2.57
2019-03-11T01:32:46.726Z,2.20
2019-03-11T01:35:15.170Z,3.00
2019-03-11T01:37:43.598Z,1.60
2019-03-11T01:40:18.843Z,1.60
2019-03-11T01:42:47.325Z,2.37
2019-03-11T01:45:17.877Z,1.87
2019-03-11T01:47:46.297Z,1.60
2019-03-11T01:50:15.370Z,3.37
2019-03-11T01:52:43.788Z,2.90
2019-03-11T01:55:13.459Z,1.80
2019-03-11T01:57:42.040Z,4.63
2019-03-11T02:00:13.551Z,2.57
2019-03-11T02:02:41.972Z,1.73
2019-03-11T02:05:10.533Z,4.33
2019-03-11T02:07:38.960Z,1.97
2019-03-11T02:10:30.960Z,5.43
2019-03-11T02:13:00.946Z,4.10
2019-03-11T02:15:29.531Z,2.93
2019-03-11T02:17:57.968Z,4.17
2019-03-11T02:20:26.430Z,3.30
2019-03-11T02:22:54.827Z,4.10
2019-03-11T02:25:23.333Z,4.20
2019-03-11T02:27:51.759Z,3.07
2019-03-11T02:30:20.251Z,2.27
2019-03-11T02:32:48.814Z,5.93
2019-03-11T02:35:45.182Z,4.60
2019-03-11T02:38:15.302Z,3.80
2019-03-11T02:40:43.843Z,5.43
2019-03-11T02:43:12.322Z,4.47
2019-03-11T02:45:40.866Z,5.97
2019-03-11T02:48:09.353Z,3.20
2019-03-11T02:50:37.825Z,5.47
2019-03-11T02:53:06.275Z,2.07
2019-03-11T02:55:34.798Z,4.83
2019-03-11T02:58:06.281Z,3.43
2019-03-11T03:00:34.731Z,4.00
2019-03-11T03:03:20.651Z,2.90
2019-03-11T03:05:50.729Z,5.07
2019-03-11T03:08:19.249Z,3.73
2019-03-11T03:10:47.780Z,4.40
2019-03-11T03:13:16.245Z,5.53
2019-03-11T03:15:44.709Z,4.27
2019-03-11T03:18:13.164Z,4.87
2019-03-11T03:20:41.596Z,4.33
2019-03-11T03:23:10.022Z,4.33
2019-03-11T03:25:38.464Z,8.77
2019-03-11T03:28:07.127Z,3.40
2019-03-11T03:30:35.760Z,4.47
2019-03-11T03:33:04.175Z,7.47
2019-03-11T03:35:32.614Z,8.00
2019-03-11T03:38:01.039Z,6.10
2019-03-11T03:40:29.575Z,4.20
2019-03-11T03:42:58.270Z,1.87
2019-03-11T03:45:38.655Z,9.23
2019-03-11T03:48:07.097Z,6.87
2019-03-11T03:50:39.787Z,3.73
2019-03-11T03:53:08.693Z,6.87
2019-03-11T03:55:37.139Z,7.30
2019-03-11T03:58:05.693Z,6.40
2019-03-11T04:00:34.138Z,6.57
2019-03-11T04:03:02.554Z,4.53
2019-03-11T04:05:31.003Z,3.17
2019-03-11T04:07:59.436Z,3.03
2019-03-11T04:10:27.877Z,3.87
2019-03-11T04:12:56.286Z,4.83
2019-03-11T04:15:24.891Z,2.97
2019-03-11T04:17:53.311Z,5.23
2019-03-11T04:20:26.775Z,5.70
2019-03-11T04:22:55.205Z,3.30
2019-03-11T04:25:23.714Z,3.53
2019-03-11T04:27:52.676Z,4.30
2019-03-11T04:30:23.823Z,3.33
2019-03-11T04:32:52.317Z,7.03
2019-03-11T04:35:20.785Z,4.23
2019-03-11T04:37:49.210Z,6.27
2019-03-11T04:40:17.865Z,10.50
2019-03-11T04:42:46.296Z,3.90
2019-03-11T04:45:18.251Z,4.33
2019-03-11T04:47:46.833Z,6.10
2019-03-11T04:50:20.321Z,6.10
2019-03-11T04:52:48.797Z,5.67
2019-03-11T04:55:17.602Z,6.23
2019-03-11T04:57:56.060Z,4.50
2019-03-11T05:00:29.290Z,7.10
2019-03-11T05:02:57.951Z,6.53
2019-03-11T05:05:26.382Z,6.37
2019-03-11T05:07:54.841Z,6.00
2019-03-11T05:10:23.351Z,6.03
2019-03-11T05:12:51.787Z,7.27
2019-03-11T05:15:20.227Z,12.93
2019-03-11T05:17:48.990Z,16.17
2019-03-11T05:20:17.668Z,7.90
2019-03-11T05:22:46.153Z,8.80
2019-03-11T05:25:15.139Z,10.07
2019-03-11T05:27:43.626Z,6.97
2019-03-11T05:30:17.507Z,10.73
2019-03-11T05:32:46.183Z,6.40
2019-03-11T05:35:14.695Z,6.00
2019-03-11T05:37:43.478Z,5.33
2019-03-11T05:40:13.447Z,7.57
2019-03-11T05:42:41.864Z,6.93
2019-03-11T05:45:13.377Z,7.97
2019-03-11T05:47:41.796Z,6.13
2019-03-11T05:50:14.872Z,6.20
2019-03-11T05:52:43.404Z,6.40
2019-03-11T05:55:12.666Z,7.57
2019-03-11T05:57:41.391Z,8.40
2019-03-11T06:00:20.517Z,9.87
2019-03-11T06:02:49.071Z,4.60
2019-03-11T06:05:17.595Z,6.20
2019-03-11T06:07:46.052Z,4.47
2019-03-11T06:10:15.335Z,10.57
2019-03-11T06:12:43.760Z,6.30
2019-03-11T06:15:15.454Z,7.00
2019-03-11T06:17:44.057Z,7.93
2019-03-11T06:20:36.036Z,4.80
2019-03-11T06:23:06.176Z,4.63
2019-03-11T06:25:34.611Z,5.70
2019-03-11T06:28:03.055Z,6.83
2019-03-11T06:30:31.945Z,6.33
2019-03-11T06:33:00.386Z,8.83
2019-03-11T06:35:28.805Z,6.57
2019-03-11T06:37:57.252Z,7.07
2019-03-11T06:40:25.698Z,4.93
2019-03-11T06:42:54.136Z,10.50
2019-03-11T06:45:22.569Z,7.00
2019-03-11T06:47:51.047Z,7.13
2019-03-11T06:50:19.464Z,9.10
2019-03-11T06:52:47.905Z,7.90
2019-03-11T06:55:16.355Z,7.10
2019-03-11T06:57:44.796Z,8.00
2019-03-11T07:00:20.281Z,10.47
2019-03-11T07:02:48.958Z,16.60
2019-03-11T07:05:20.505Z,15.37
2019-03-11T07:07:47.925Z,7.93
2019-03-11T07:10:17.089Z,8.17
2019-03-11T07:12:45.656Z,9.70
2019-03-11T07:15:16.579Z,12.33
2019-03-11T07:17:45.464Z,8.20
2019-03-11T07:20:21.000Z,11.50
2019-03-11T07:22:49.490Z,7.23
2019-03-11T07:25:18.331Z,6.57
2019-03-11T07:27:46.861Z,5.50
2019-03-11T07:30:16.619Z,8.80
2019-03-11T07:32:45.330Z,4.47
2019-03-11T07:35:13.933Z,5.10
2019-03-11T07:37:42.703Z,12.67
2019-03-11T07:40:13.637Z,4.43
2019-03-11T07:42:42.175Z,5.47
2019-03-11T07:45:12.847Z,10.13
2019-03-11T07:47:41.446Z,4.90
2019-03-11T07:50:11.387Z,9.40
2019-03-11T07:52:39.884Z,3.67
2019-03-11T07:55:09.454Z,4.30
2019-03-11T07:57:38.039Z,4.10
2019-03-11T08:00:20.247Z,4.40
2019-03-11T08:02:48.813Z,4.63
2019-03-11T08:05:17.394Z,1.87
2019-03-11T08:07:49.186Z,3.67
2019-03-11T08:10:22.329Z,2.73
2019-03-11T08:12:50.920Z,4.30
2019-03-11T08:15:19.423Z,3.70
2019-03-11T08:17:48.384Z,3.73
2019-03-11T08:20:17.954Z,2.77
2019-03-11T08:22:46.571Z,6.33
2019-03-11T08:25:16.953Z,5.00
2019-03-11T08:27:45.528Z,1.50
2019-03-11T08:30:23.170Z,7.33
2019-03-11T08:32:51.734Z,4.60
2019-03-11T08:35:20.276Z,5.93
2019-03-11T08:37:48.967Z,6.53
2019-03-11T08:40:18.658Z,3.33
2019-03-11T08:42:47.222Z,3.43
2019-03-11T08:45:22.406Z,2.03
2019-03-11T08:47:48.437Z,5.07
2019-03-11T08:50:17.332Z,3.73
2019-03-11T08:52:45.981Z,2.87
2019-03-11T08:55:14.601Z,3.60
2019-03-11T08:57:43.164Z,3.60
2019-03-11T09:00:17.113Z,3.40
2019-03-11T09:02:45.698Z,4.80
2019-03-11T09:05:14.512Z,5.70
2019-03-11T09:07:43.043Z,5.47
2019-03-11T09:10:14.423Z,6.87
2019-03-11T09:12:42.986Z,5.27
2019-03-11T09:15:14.250Z,5.37
2019-03-11T09:17:42.680Z,5.77
2019-03-11T09:20:13.603Z,4.10
2019-03-11T09:22:42.146Z,4.90
2019-03-11T09:25:21.026Z,6.93
2019-03-11T09:27:50.783Z,5.93
2019-03-11T09:30:22.001Z,4.57
2019-03-11T09:32:51.006Z,5.17
2019-03-11T09:35:19.621Z,6.40
2019-03-11T09:37:48.666Z,7.30
2019-03-11T09:40:18.719Z,4.73
2019-03-11T09:42:47.298Z,7.00
2019-03-11T09:45:17.302Z,4.50
2019-03-11T09:47:46.112Z,6.60
2019-03-11T09:50:16.054Z,6.67
2019-03-11T09:52:44.608Z,5.53
2019-03-11T09:55:20.035Z,4.37
2019-03-11T09:57:48.538Z,3.80
2019-03-11T10:00:20.290Z,11.03
2019-03-11T10:02:52.852Z,3.60
2019-03-11T10:05:19.450Z,3.90
2019-03-11T10:07:48.627Z,5.27
2019-03-11T10:10:19.780Z,5.80
2019-03-11T10:12:49.916Z,3.87
2019-03-11T10:15:22.150Z,4.10
2019-03-11T10:17:50.800Z,3.67
2019-03-11T10:20:20.077Z,5.47
2019-03-11T10:22:51.400Z,2.83
2019-03-11T10:25:20.837Z,5.23
2019-03-11T10:27:49.308Z,4.27
2019-03-11T10:30:22.207Z,8.00
2019-03-11T10:32:50.953Z,9.17
2019-03-11T10:35:31.367Z,6.53
2019-03-11T10:37:50.724Z,8.50
2019-03-11T10:40:23.932Z,4.67
2019-03-11T10:42:52.783Z,4.27
2019-03-11T10:45:30.562Z,6.23
2019-03-11T10:47:51.652Z,5.70
2019-03-11T10:50:21.270Z,3.77
2019-03-11T10:52:50.069Z,8.77
2019-03-11T10:55:22.169Z,5.73
2019-03-11T10:57:50.894Z,5.13
2019-03-11T11:00:32.618Z,4.93
2019-03-11T11:03:01.147Z,8.23
2019-03-11T11:05:29.714Z,7.30
2019-03-11T11:07:58.305Z,3.23
2019-03-11T11:10:26.993Z,3.60
2019-03-11T11:12:55.498Z,3.27
2019-03-11T11:15:27.109Z,6.17
2019-03-11T11:17:55.674Z,4.20
2019-03-11T11:20:24.914Z,3.23
2019-03-11T11:22:54.311Z,4.70
2019-03-11T11:25:24.939Z,6.67
2019-03-11T11:27:53.428Z,5.13
2019-03-11T11:30:23.307Z,3.50
2019-03-11T11:32:51.801Z,3.33
2019-03-11T11:35:20.296Z,3.53
2019-03-11T11:37:48.863Z,7.47
2019-03-11T11:40:22.557Z,5.37
2019-03-11T11:42:51.126Z,4.87
2019-03-11T11:45:24.675Z,5.50
2019-03-11T11:47:53.103Z,5.73
2019-03-11T11:50:22.662Z,5.10
2019-03-11T11:52:52.449Z,4.23
2019-03-11T11:55:22.813Z,5.70
2019-03-11T11:57:51.595Z,4.97
2019-03-11T12:00:29.173Z,4.30
2019-03-11T12:02:57.605Z,3.13
2019-03-11T12:05:26.033Z,3.53
2019-03-11T12:07:54.470Z,5.07
2019-03-11T12:10:30.907Z,2.40
2019-03-11T12:12:59.331Z,5.07
2019-03-11T12:15:27.854Z,2.30
2019-03-11T12:17:56.298Z,3.17
2019-03-11T12:20:29.749Z,3.40
2019-03-11T12:22:58.249Z,2.47
2019-03-11T12:25:26.762Z,3.37
2019-03-11T12:27:57.874Z,3.07
2019-03-11T12:30:27.431Z,4.27
2019-03-11T12:32:55.972Z,4.20
2019-03-11T12:35:24.635Z,3.97
2019-03-11T12:37:53.542Z,3.50
2019-03-11T12:40:22.131Z,3.47
2019-03-11T12:42:50.662Z,5.37
2019-03-11T12:45:26.094Z,3.07
2019-03-11T12:47:54.769Z,3.10
2019-03-11T12:50:31.048Z,5.83
2019-03-11T12:52:59.468Z,3.87
2019-03-11T12:55:27.900Z,2.73
2019-03-11T12:57:56.460Z,4.50
2019-03-11T13:00:25.884Z,3.43
2019-03-11T13:02:54.308Z,4.57
2019-03-11T13:05:22.744Z,3.43
2019-03-11T13:07:51.154Z,2.77
2019-03-11T13:10:27.071Z,5.47
2019-03-11T13:12:55.568Z,4.07
2019-03-11T13:15:24.075Z,4.73
2019-03-11T13:17:52.503Z,3.00
2019-03-11T13:20:27.125Z,2.25
2019-03-11T13:22:55.548Z,2.47
2019-03-11T13:25:24.137Z,1.80
2019-03-11T13:27:52.634Z,1.50
2019-03-11T13:30:21.074Z,3.83
2019-03-11T13:32:49.569Z,3.70
2019-03-11T13:35:18.013Z,3.60
2019-03-11T13:37:46.449Z,3.62
2019-03-11T13:40:16.252Z,1.90
2019-03-11T13:42:44.701Z,4.30
2019-03-11T13:45:18.077Z,2.80
2019-03-11T13:47:46.508Z,2.97
2019-03-11T13:50:35.809Z,2.73
2019-03-11T13:53:04.314Z,2.23
2019-03-11T13:55:32.733Z,2.27
2019-03-11T13:58:01.171Z,2.47
2019-03-11T14:00:29.657Z,7.20
2019-03-11T14:02:58.096Z,2.33
2019-03-11T14:05:26.516Z,2.70
2019-03-11T14:07:54.949Z,2.30
2019-03-11T14:10:23.382Z,2.77
2019-03-11T14:12:51.814Z,3.40
2019-03-11T14:15:23.294Z,2.40
2019-03-11T14:17:51.732Z,3.73
2019-03-11T14:20:20.161Z,5.63
2019-03-11T14:22:48.601Z,2.57
2019-03-11T14:25:17.017Z,1.70
2019-03-11T14:27:45.454Z,2.77
2019-03-11T14:30:18.552Z,3.30
2019-03-11T14:32:46.993Z,3.27
2019-03-11T14:35:15.498Z,2.37
2019-03-11T14:37:43.931Z,3.37
2019-03-11T14:40:17.460Z,3.70
2019-03-11T14:42:45.904Z,1.40
2019-03-11T14:45:21.204Z,2.97
2019-03-11T14:47:49.644Z,3.77
2019-03-11T14:50:18.603Z,2.47
2019-03-11T14:52:47.034Z,2.87
2019-03-11T14:55:15.937Z,2.27
2019-03-11T14:57:44.444Z,1.37
2019-03-11T15:00:19.691Z,6.13
2019-03-11T15:02:48.583Z,3.33
2019-03-11T15:05:18.266Z,1.87
2019-03-11T15:07:47.185Z,4.47
2019-03-11T15:10:17.543Z,6.57
2019-03-11T15:12:46.057Z,3.33
2019-03-11T15:15:23.144Z,4.20
2019-03-11T15:17:51.579Z,3.50
2019-03-11T15:20:20.009Z,2.50
2019-03-11T15:22:48.625Z,4.10
2019-03-11T15:25:17.851Z,2.97
2019-03-11T15:27:46.356Z,3.80
2019-03-11T15:30:20.640Z,3.00
2019-03-11T15:32:49.076Z,2.97
2019-03-11T15:35:17.678Z,2.03
2019-03-11T15:37:46.180Z,2.33
2019-03-11T15:40:16.723Z,3.13
2019-03-11T15:42:45.156Z,5.10
2019-03-11T15:45:15.129Z,4.10
2019-03-11T15:47:43.659Z,4.63
2019-03-11T15:50:20.821Z,2.83
2019-03-11T15:52:49.269Z,6.97
2019-03-11T15:55:17.962Z,2.30
2019-03-11T15:57:46.464Z,4.30
2019-03-11T16:00:17.508Z,3.53
2019-03-11T16:02:46.281Z,3.30
2019-03-11T16:05:15.370Z,2.67
2019-03-11T16:07:43.819Z,2.57
2019-03-11T16:10:17.203Z,4.80
2019-03-11T16:12:44.849Z,3.50
2019-03-11T16:15:14.443Z,2.87
2019-03-11T16:17:42.872Z,4.20
2019-03-11T16:20:21.669Z,5.20
2019-03-11T16:22:50.274Z,3.93
2019-03-11T16:25:18.914Z,3.97
2019-03-11T16:27:47.395Z,4.80
2019-03-11T16:30:17.572Z,5.23
2019-03-11T16:32:58.246Z,2.40
2019-03-11T16:35:16.263Z,3.50
2019-03-11T16:37:44.719Z,3.47
2019-03-11T16:40:14.209Z,6.77
2019-03-11T16:42:42.652Z,4.00
2019-03-11T16:45:13.635Z,4.63
2019-03-11T16:47:42.078Z,4.10
2019-03-11T16:50:20.849Z,2.63
2019-03-11T16:52:49.342Z,5.83
2019-03-11T16:58:08.586Z,5.33
2019-03-11T17:00:41.962Z,3.57
2019-03-11T17:03:10.584Z,3.43
2019-03-11T17:05:39.039Z,7.63
2019-03-11T17:08:07.475Z,4.70
2019-03-11T17:10:35.937Z,4.10
2019-03-11T17:13:04.492Z,4.23
2019-03-11T17:15:32.939Z,3.60
2019-03-11T17:18:01.400Z,4.53
2019-03-11T17:20:29.818Z,6.20
2019-03-11T17:22:58.277Z,10.40
2019-03-11T17:25:27.000Z,2.87
2019-03-11T17:27:55.500Z,4.53
2019-03-11T17:30:25.687Z,3.60
2019-03-11T17:32:54.140Z,6.70
2019-03-11T17:35:22.589Z,6.43
2019-03-11T17:37:51.038Z,4.17
2019-03-11T17:40:21.791Z,5.63
2019-03-11T17:42:50.395Z,6.90
2019-03-11T17:45:19.366Z,7.40
2019-03-11T17:47:47.818Z,7.43
2019-03-11T17:50:35.587Z,5.43
2019-03-11T17:53:04.043Z,6.63
2019-03-11T17:55:32.500Z,4.10
2019-03-11T17:58:00.928Z,4.33
2019-03-11T18:00:54.552Z,6.10
2019-03-11T18:03:13.235Z,6.20
2019-03-11T18:05:41.668Z,4.80
2019-03-11T18:08:10.117Z,6.57
2019-03-11T18:10:38.577Z,4.80
2019-03-11T18:13:07.011Z,6.23
2019-03-11T18:15:35.470Z,5.57
2019-03-11T18:18:03.904Z,4.30
2019-03-11T18:20:32.351Z,6.63
2019-03-11T18:23:00.780Z,7.33
2019-03-11T18:25:29.233Z,5.90
2019-03-11T18:27:57.653Z,5.23
2019-03-11T18:30:27.757Z,5.37
2019-03-11T18:32:56.325Z,6.33
2019-03-11T18:35:24.844Z,8.60
2019-03-11T18:38:03.383Z,5.90
2019-03-11T18:40:23.493Z,4.63
2019-03-11T18:42:51.949Z,7.33
2019-03-11T18:45:20.468Z,8.33
2019-03-11T18:47:48.994Z,7.33
2019-03-11T18:50:36.845Z,7.53
2019-03-11T18:53:05.272Z,6.20
2019-03-11T18:55:33.728Z,5.13
2019-03-11T18:58:02.265Z,7.80
2019-03-11T19:00:30.778Z,6.23
2019-03-11T19:02:59.237Z,5.40
2019-03-11T19:05:27.874Z,6.77
2019-03-11T19:07:56.340Z,6.47
2019-03-11T19:10:24.795Z,6.70
2019-03-11T19:12:53.291Z,7.60
2019-03-11T19:15:24.078Z,9.20
2019-03-11T19:17:52.607Z,8.50
2019-03-11T19:20:25.270Z,12.47
2019-03-11T19:22:54.128Z,11.83
2019-03-11T19:25:22.628Z,10.97
2019-03-11T19:27:51.113Z,9.10
2019-03-11T19:30:21.174Z,6.97
2019-03-11T19:33:11.048Z,9.33
2019-03-11T19:35:39.144Z,13.87
2019-03-11T19:38:07.681Z,10.63
2019-03-11T19:40:36.125Z,11.20
2019-03-11T19:43:04.721Z,48.40
2019-03-11T19:45:33.171Z,41.73
2019-03-11T19:48:01.628Z,25.50
2019-03-11T19:50:30.205Z,12.20
2019-03-11T19:52:59.443Z,8.33
2019-03-11T19:55:28.261Z,10.40
2019-03-11T19:57:56.848Z,8.93
2019-03-11T20:00:25.687Z,9.27
2019-03-11T20:02:54.289Z,17.20
2019-03-11T20:05:27.566Z,9.07
2019-03-11T20:07:56.111Z,9.13
2019-03-11T20:10:24.909Z,10.07
2019-03-11T20:12:53.362Z,9.53
2019-03-11T20:15:21.913Z,9.07
2019-03-11T20:17:50.532Z,8.27
2019-03-11T20:20:20.059Z,9.37
2019-03-11T20:23:10.807Z,9.67
2019-03-11T20:25:39.340Z,9.63
2019-03-11T20:28:07.957Z,8.97
2019-03-11T20:30:36.578Z,9.60
2019-03-11T20:33:05.064Z,9.37
2019-03-11T20:35:33.624Z,10.23
2019-03-11T20:38:02.184Z,8.50
2019-03-11T20:40:30.869Z,8.80
2019-03-11T20:42:59.412Z,15.90
2019-03-11T20:45:27.995Z,22.57
2019-03-11T20:47:56.695Z,11.20
2019-03-11T20:50:25.278Z,10.93
2019-03-11T20:52:53.844Z,13.73
2019-03-11T20:55:22.372Z,12.67
2019-03-11T20:57:50.858Z,14.83
2019-03-11T21:00:21.173Z,12.50
2019-03-11T21:02:49.856Z,12.50
2019-03-11T21:05:38.533Z,14.97
2019-03-11T21:08:07.100Z,12.57
2019-03-11T21:10:35.684Z,14.97
2019-03-11T21:13:04.264Z,11.60
2019-03-11T21:15:32.773Z,10.90
2019-03-11T21:18:20.682Z,12.93
2019-03-11T21:20:49.180Z,12.57
2019-03-11T21:23:17.639Z,11.77
2019-03-11T21:25:46.195Z,12.27
2019-03-11T21:28:14.818Z,11.93
2019-03-11T21:30:43.535Z,10.13
2019-03-11T21:33:12.080Z,11.87
2019-03-11T21:35:40.717Z,10.77
2019-03-11T21:38:09.232Z,10.90
2019-03-11T21:40:37.857Z,11.50
2019-03-11T21:43:06.335Z,8.83
2019-03-11T21:45:35.203Z,10.70
2019-03-11T21:48:03.701Z,10.47
2019-03-11T21:50:32.268Z,10.67
2019-03-11T21:53:00.782Z,11.80
2019-03-11T21:55:29.363Z,8.93
2019-03-11T21:57:57.905Z,9.83
2019-03-11T22:00:34.421Z,11.50
2019-03-11T22:02:56.585Z,10.97
2019-03-11T22:05:25.153Z,11.60
2019-03-11T22:07:53.599Z,13.27
2019-03-11T22:10:22.230Z,12.20
2019-03-11T22:12:50.692Z,13.97
2019-03-11T22:15:22.465Z,11.37
2019-03-11T22:17:50.926Z,10.10
2019-03-11T22:20:19.645Z,11.63
2019-03-11T22:22:48.219Z,22.80
2019-03-11T22:25:22.556Z,32.23
2019-03-11T22:27:51.062Z,15.87
2019-03-11T22:30:20.971Z,12.23
2019-03-11T22:32:49.507Z,10.07
2019-03-11T22:35:18.292Z,10.43
2019-03-11T22:37:46.813Z,10.50
2019-03-11T22:40:16.519Z,12.27
2019-03-11T22:42:45.303Z,12.73
2019-03-11T22:45:23.533Z,9.73
2019-03-11T22:47:52.139Z,12.00
2019-03-11T22:50:20.993Z,11.33
2019-03-11T22:52:52.525Z,11.87
2019-03-11T22:55:21.021Z,11.00
2019-03-11T22:57:49.544Z,10.93
2019-03-11T23:00:54.239Z,12.47
2019-03-11T23:03:24.273Z,13.23
2019-03-11T23:05:58.155Z,15.37
2019-03-11T23:08:24.137Z,17.10
2019-03-11T23:10:52.653Z,16.10
2019-03-11T23:13:22.070Z,15.37
2019-03-11T23:15:50.647Z,17.70
2019-03-11T23:18:19.092Z,16.37
2019-03-11T23:20:47.615Z,16.90
2019-03-11T23:23:16.224Z,16.17
2019-03-11T23:25:44.691Z,17.67
2019-03-11T23:28:13.136Z,17.87
2019-03-11T23:30:41.739Z,26.03
2019-03-11T23:33:10.265Z,16.87
2019-03-11T23:35:38.825Z,16.67
2019-03-11T23:38:07.338Z,14.63
2019-03-11T23:40:35.804Z,14.33
2019-03-11T23:43:04.590Z,13.13
2019-03-11T23:45:33.085Z,13.47
2019-03-11T23:48:01.600Z,13.93
2019-03-11T23:50:30.049Z,14.70
2019-03-11T23:52:58.600Z,13.23
2019-03-11T23:55:27.107Z,15.17
2019-03-11T23:57:55.555Z,11.70
